Time;durP1;ratioP1;P1;durP2;ratioP2;P2;SDS_P1;SDS_P2;PMS_P1;PMS_P2;Temp;Humidity;BMP_temperature;BMP_pressure;BME280_temperature;BME280_humidity;BME280_pressure;Samples;Min_cycle;Max_cycle;Signal;HPM_P1;HPM_P2
2022/05/01 00:01:27;;;;;;;12.60;8.90;;;5.40;99.90;;;;;;5030858;28;20106;-75
2022/05/01 00:03:53;;;;;;;13.20;9.82;;;5.50;99.90;;;;;;5030038;28;20052;-75
2022/05/01 00:06:19;;;;;;;11.80;9.55;;;5.40;99.90;;;;;;5046181;28;20049;-75
2022/05/01 00:08:46;;;;;;;13.10;9.15;;;5.40;99.90;;;;;;5078328;28;20486;-75
2022/05/01 00:11:13;;;;;;;11.98;9.38;;;6.20;99.90;;;;;;5021751;28;20052;-75
2022/05/01 00:13:40;;;;;;;11.60;8.43;;;5.30;99.90;;;;;;5080322;28;20056;-75
2022/05/01 00:16:06;;;;;;;10.85;8.57;;;5.30;99.90;;;;;;5029286;28;20177;-75
2022/05/01 00:18:32;;;;;;;9.57;8.00;;;5.30;99.90;;;;;;5045536;28;20421;-75
2022/05/01 00:20:58;;;;;;;11.88;8.43;;;5.70;99.90;;;;;;5046554;28;20060;-75
2022/05/01 00:23:24;;;;;;;12.38;8.55;;;6.20;99.90;;;;;;5046899;28;20048;-75
2022/05/01 00:25:49;;;;;;;10.88;8.02;;;5.20;99.90;;;;;;5063298;28;20048;-75
2022/05/01 00:28:15;;;;;;;12.02;8.15;;;5.80;99.90;;;;;;5004440;28;20040;-75
2022/05/01 00:30:41;;;;;;;11.18;8.13;;;6.10;99.90;;;;;;5029842;28;20064;-75
2022/05/01 00:38:37;;;;;;;12.07;8.57;;;5.10;99.90;;;;;;5045775;28;20130;-75
2022/05/01 00:41:07;;;;;;;13.27;8.75;;;5.00;99.90;;;;;;5080595;28;20119;-74
2022/05/01 00:43:33;;;;;;;14.35;9.43;;;5.00;99.90;;;;;;5047037;28;20049;-75
2022/05/01 00:45:59;;;;;;;11.70;8.75;;;5.40;99.90;;;;;;5021953;28;20537;-75
2022/05/01 00:48:25;;;;;;;14.05;8.98;;;5.60;99.90;;;;;;5030016;28;20092;-75
2022/05/01 00:50:52;;;;;;;11.38;8.80;;;5.00;99.90;;;;;;5033360;28;20956;-75
2022/05/01 00:53:19;;;;;;;12.80;9.23;;;5.00;99.90;;;;;;5067030;28;20065;-74
2022/05/01 00:55:46;;;;;;;11.50;8.40;;;4.90;99.90;;;;;;5042487;28;20048;-75
2022/05/01 00:58:12;;;;;;;11.70;8.82;;;5.10;99.90;;;;;;5032786;28;20056;-75
2022/05/01 01:00:38;;;;;;;14.77;9.20;;;4.90;99.90;;;;;;5050143;28;20076;-75
2022/05/01 01:03:04;;;;;;;11.20;9.20;;;4.90;99.90;;;;;;5032360;28;20138;-72
2022/05/01 01:05:30;;;;;;;15.85;9.48;;;4.90;99.90;;;;;;5049566;28;20041;-75
2022/05/01 01:08:00;;;;;;;13.05;9.25;;;4.80;99.90;;;;;;5007788;28;20048;-75
2022/05/01 01:10:26;;;;;;;12.52;9.68;;;4.80;99.90;;;;;;5083127;28;20449;-75
2022/05/01 01:12:55;;;;;;;14.20;9.23;;;5.20;99.90;;;;;;5009134;28;20057;-74
2022/05/01 01:15:22;;;;;;;12.45;9.38;;;4.80;99.90;;;;;;5009135;28;20498;-75
2022/05/01 01:17:54;;;;;;;12.20;9.35;;;4.70;99.90;;;;;;5040852;28;20060;-75
2022/05/01 01:20:31;;;;;;;13.73;9.70;;;4.70;99.90;;;;;;5068004;28;20051;-75
2022/05/01 01:23:00;;;;;;;12.85;9.68;;;4.70;99.90;;;;;;5025692;28;20045;-75
2022/05/01 01:25:29;;;;;;;13.02;9.73;;;4.60;99.90;;;;;;5049771;28;20439;-75
2022/05/01 01:28:02;;;;;;;15.93;10.32;;;5.70;99.90;;;;;;5049296;28;20052;-75
2022/05/01 01:33:31;;;;;;;14.40;10.18;;;4.60;99.90;;;;;;5050427;28;20080;-75
2022/05/01 01:36:02;;;;;;;15.57;10.32;;;4.60;99.90;;;;;;5048676;28;20466;-75
2022/05/01 01:38:28;;;;;;;14.77;10.38;;;5.60;99.90;;;;;;5048152;28;20506;-75
2022/05/01 01:40:57;;;;;;;14.10;11.18;;;4.50;99.90;;;;;;5032639;28;20056;-75
2022/05/01 01:43:28;;;;;;;14.57;10.45;;;4.50;99.90;;;;;;5048546;28;20612;-75
2022/05/01 01:45:57;;;;;;;13.52;10.30;;;4.50;99.90;;;;;;5082172;28;20048;-75
2022/05/01 01:48:23;;;;;;;15.30;10.32;;;4.50;99.90;;;;;;5065686;28;20103;-75
2022/05/01 01:51:01;;;;;;;16.67;10.48;;;4.50;99.90;;;;;;5007725;28;20129;-75
2022/05/01 01:53:28;;;;;;;12.63;9.00;;;4.50;99.90;;;;;;5042099;28;20136;-75
2022/05/01 01:55:55;;;;;;;12.00;9.02;;;4.40;99.90;;;;;;5032195;28;20049;-75
2022/05/01 01:58:20;;;;;;;13.20;9.02;;;5.40;99.90;;;;;;5048660;28;20041;-74
2022/05/01 02:00:47;;;;;;;10.27;7.93;;;4.40;99.90;;;;;;5049138;28;20128;-75
2022/05/01 02:03:12;;;;;;;10.95;7.88;;;5.00;99.90;;;;;;5049057;28;20372;-75
2022/05/01 02:05:38;;;;;;;11.18;7.70;;;4.30;99.90;;;;;;5048660;28;20052;-75
2022/05/01 02:08:07;;;;;;;10.57;8.02;;;5.00;99.90;;;;;;5048299;28;20048;-75
2022/05/01 02:10:33;;;;;;;10.00;8.02;;;4.30;99.90;;;;;;5048606;28;20396;-74
2022/05/01 02:13:02;;;;;;;9.75;7.78;;;4.40;99.90;;;;;;5048090;28;20057;-74
2022/05/01 02:15:32;;;;;;;11.05;7.55;;;4.20;99.90;;;;;;5065186;28;20076;-74
2022/05/01 02:17:59;;;;;;;8.98;6.90;;;4.20;99.90;;;;;;5048086;28;20447;-74
2022/05/01 02:20:26;;;;;;;9.38;6.80;;;4.10;99.90;;;;;;5065467;28;20375;-74
2022/05/01 02:22:55;;;;;;;9.23;7.35;;;4.10;99.90;;;;;;5040775;28;20044;-74
2022/05/01 02:25:21;;;;;;;11.30;6.80;;;5.20;99.90;;;;;;5082439;28;20076;-74
2022/05/01 02:27:47;;;;;;;9.43;7.10;;;4.10;99.90;;;;;;5047501;28;20059;-74
2022/05/01 02:30:13;;;;;;;9.75;7.43;;;5.30;99.90;;;;;;5032814;28;20183;-74
2022/05/01 02:32:40;;;;;;;9.05;7.20;;;4.00;99.90;;;;;;5040765;28;20053;-74
2022/05/01 02:35:07;;;;;;;8.20;6.68;;;4.00;99.90;;;;;;5048842;28;20045;-74
2022/05/01 02:37:33;;;;;;;9.90;6.88;;;4.00;99.90;;;;;;5048836;28;20041;-74
2022/05/01 02:39:59;;;;;;;8.05;6.63;;;4.80;99.90;;;;;;5008337;28;20566;-74
2022/05/01 02:42:24;;;;;;;8.85;6.70;;;4.00;99.90;;;;;;5082317;28;20567;-77
2022/05/01 02:44:50;;;;;;;9.80;7.00;;;4.00;99.90;;;;;;5048668;28;20052;-74
2022/05/01 02:47:16;;;;;;;10.70;6.97;;;3.90;99.90;;;;;;5048629;28;20049;-74
2022/05/01 02:49:42;;;;;;;10.13;6.80;;;3.90;99.90;;;;;;5047213;28;20049;-75
2022/05/01 02:52:09;;;;;;;9.57;7.55;;;3.90;99.90;;;;;;5064270;28;20052;-74
2022/05/01 02:54:35;;;;;;;9.23;7.13;;;5.00;99.90;;;;;;5031337;28;20049;-74
2022/05/01 02:57:02;;;;;;;8.13;6.72;;;4.30;99.90;;;;;;5030690;28;20098;-74
2022/05/01 02:59:27;;;;;;;6.90;5.68;;;3.90;99.90;;;;;;5024137;28;20088;-74
2022/05/01 03:01:55;;;;;;;8.07;5.95;;;3.90;99.90;;;;;;5045874;28;20048;-74
2022/05/01 03:04:21;;;;;;;8.75;5.47;;;5.00;99.90;;;;;;5040424;28;20056;-74
2022/05/01 03:06:47;;;;;;;6.25;4.95;;;4.10;99.90;;;;;;5047587;28;20045;-74
2022/05/01 03:09:13;;;;;;;8.32;5.38;;;5.20;99.90;;;;;;5047420;28;20040;-74
2022/05/01 03:11:39;;;;;;;6.93;4.63;;;4.10;99.90;;;;;;5047730;28;20399;-74
2022/05/01 03:14:05;;;;;;;5.75;4.93;;;4.00;99.90;;;;;;5046023;28;20552;-74
2022/05/01 03:16:30;;;;;;;6.75;5.30;;;4.30;99.90;;;;;;5047652;28;20056;-74
2022/05/01 03:24:26;;;;;;;5.68;4.35;;;3.70;99.90;;;;;;5033423;28;20053;-74
2022/05/01 03:26:52;;;;;;;7.15;4.32;;;3.70;99.90;;;;;;5047443;28;20053;-74
2022/05/01 03:29:18;;;;;;;6.68;3.95;;;3.60;99.90;;;;;;5047775;28;20048;-74
2022/05/01 03:31:46;;;;;;;4.32;3.55;;;5.30;99.90;;;;;;5046942;28;20076;-74
2022/05/01 03:34:14;;;;;;;4.32;3.80;;;3.60;99.90;;;;;;5046674;28;20631;-74
2022/05/01 03:36:40;;;;;;;4.50;3.70;;;3.70;99.90;;;;;;5047128;28;20541;-74
2022/05/01 03:39:06;;;;;;;4.88;3.85;;;4.80;99.90;;;;;;5045597;28;20049;-74
2022/05/01 03:41:32;;;;;;;6.43;4.43;;;3.60;99.90;;;;;;5047555;28;20049;-74
2022/05/01 03:43:58;;;;;;;5.78;4.53;;;3.60;99.90;;;;;;5029770;28;20052;-74
2022/05/01 03:46:24;;;;;;;5.18;4.13;;;4.00;99.90;;;;;;5029332;28;20047;-74
2022/05/01 03:48:53;;;;;;;5.47;4.30;;;3.50;99.90;;;;;;5030257;28;20037;-74
2022/05/01 03:51:18;;;;;;;5.82;4.55;;;3.70;99.90;;;;;;5047802;28;20049;-74
2022/05/01 03:53:47;;;;;;;5.28;4.45;;;3.50;99.90;;;;;;5008204;28;20067;-74
2022/05/01 03:56:13;;;;;;;5.95;3.97;;;4.50;99.90;;;;;;5046538;28;20127;-74
2022/05/01 03:58:39;;;;;;;5.60;4.20;;;4.50;99.90;;;;;;5046221;28;20120;-74
2022/05/01 04:01:05;;;;;;;6.38;3.58;;;4.10;99.90;;;;;;5047437;28;20049;-74
2022/05/01 04:03:30;;;;;;;5.30;3.80;;;4.30;99.90;;;;;;5063298;28;20055;-74
2022/05/01 04:05:56;;;;;;;6.10;3.63;;;4.50;99.90;;;;;;5030044;28;20139;-74
2022/05/01 04:08:22;;;;;;;5.65;3.83;;;4.70;99.90;;;;;;5045506;28;20052;-74
2022/05/01 04:10:49;;;;;;;5.10;4.25;;;3.50;99.90;;;;;;5007569;28;20135;-74
2022/05/01 04:13:15;;;;;;;5.60;4.38;;;3.50;99.90;;;;;;5030798;28;20049;-74
2022/05/01 04:15:42;;;;;;;5.95;4.25;;;3.50;99.90;;;;;;5080245;28;20151;-74
2022/05/01 04:18:09;;;;;;;5.65;4.40;;;4.60;99.90;;;;;;5028927;28;20065;-74
2022/05/01 04:20:38;;;;;;;5.22;4.22;;;3.40;99.90;;;;;;5047022;28;20075;-74
2022/05/01 04:23:06;;;;;;;6.60;4.35;;;4.40;99.90;;;;;;5022093;28;20048;-74
2022/05/01 04:25:32;;;;;;;6.28;4.47;;;3.90;99.90;;;;;;5049682;28;20087;-74
2022/05/01 04:28:04;;;;;;;4.63;3.97;;;3.50;99.90;;;;;;5082506;28;20064;-75
2022/05/01 04:30:31;;;;;;;4.65;3.63;;;3.50;99.90;;;;;;5043045;28;20538;-74
2022/05/01 04:33:08;;;;;;;4.93;3.35;;;4.40;99.90;;;;;;5026522;28;20095;-74
2022/05/01 04:35:43;;;;;;;4.68;3.80;;;3.50;99.90;;;;;;5066886;28;20052;-74
2022/05/01 04:38:13;;;;;;;4.47;3.10;;;3.50;99.90;;;;;;5050121;28;20075;-74
2022/05/01 04:40:42;;;;;;;4.05;3.22;;;3.90;99.90;;;;;;5050206;28;20106;-74
2022/05/01 04:43:11;;;;;;;5.55;3.45;;;5.00;99.90;;;;;;5083593;28;20339;-74
2022/05/01 04:45:39;;;;;;;4.28;3.55;;;4.60;99.90;;;;;;5066807;28;20048;-74
2022/05/01 04:48:06;;;;;;;4.50;2.95;;;3.60;99.90;;;;;;5048593;28;20049;-74
2022/05/01 04:50:32;;;;;;;5.88;3.63;;;3.60;99.90;;;;;;5084153;28;20056;-74
2022/05/01 04:53:00;;;;;;;6.25;4.50;;;3.70;99.90;;;;;;5049898;28;20164;-74
2022/05/01 04:55:26;;;;;;;5.13;4.00;;;4.40;99.90;;;;;;5066571;28;20080;-75
2022/05/01 04:57:52;;;;;;;4.80;3.70;;;3.70;99.90;;;;;;5048542;28;20056;-76
2022/05/01 05:00:21;;;;;;;7.40;4.32;;;3.80;99.90;;;;;;5026258;28;20053;-75
2022/05/01 05:02:52;;;;;;;6.25;4.95;;;3.80;99.90;;;;;;5050516;28;20049;-75
2022/05/01 05:05:20;;;;;;;7.07;4.85;;;4.90;99.90;;;;;;5026336;28;20053;-75
2022/05/01 05:07:46;;;;;;;7.38;5.25;;;4.40;99.90;;;;;;5024661;28;20055;-76
2022/05/01 05:10:13;;;;;;;7.07;5.32;;;4.00;99.90;;;;;;5066350;28;20040;-75
2022/05/01 05:12:43;;;;;;;8.02;6.05;;;4.00;99.90;;;;;;5050824;28;20056;-75
2022/05/01 05:15:11;;;;;;;10.60;7.07;;;4.50;99.90;;;;;;5049985;28;20048;-75
2022/05/01 05:17:38;;;;;;;8.88;6.70;;;4.30;99.90;;;;;;5033213;28;20057;-76
2022/05/01 05:20:09;;;;;;;9.98;6.30;;;5.50;99.90;;;;;;5048795;28;20120;-75
2022/05/01 05:22:35;;;;;;;11.13;6.93;;;4.40;99.90;;;;;;5049474;28;20041;-76
2022/05/01 05:25:01;;;;;;;10.82;8.20;;;5.00;99.90;;;;;;5032935;28;20072;-76
2022/05/01 05:27:27;;;;;;;11.90;8.55;;;5.40;99.90;;;;;;5033502;28;20063;-76
2022/05/01 05:29:54;;;;;;;9.85;7.35;;;4.70;99.90;;;;;;5008646;28;20040;-76
2022/05/01 05:32:21;;;;;;;11.07;8.60;;;4.80;99.90;;;;;;5050020;28;20047;-76
2022/05/01 05:34:47;;;;;;;10.30;7.63;;;4.80;99.90;;;;;;5048883;28;20052;-75
2022/05/01 05:37:15;;;;;;;10.85;8.93;;;4.90;99.90;;;;;;5050200;28;20128;-75
2022/05/01 05:39:40;;;;;;;11.13;8.70;;;5.10;99.90;;;;;;5025889;28;20056;-76
2022/05/01 05:42:06;;;;;;;9.63;8.10;;;5.10;99.90;;;;;;5032859;28;20449;-75
2022/05/01 05:44:32;;;;;;;12.05;8.98;;;5.20;99.90;;;;;;5032830;28;20088;-76
2022/05/01 05:46:58;;;;;;;10.95;8.77;;;5.30;99.90;;;;;;5048894;28;20111;-76
2022/05/01 05:49:24;;;;;;;11.15;9.40;;;5.40;99.90;;;;;;5032917;28;20080;-76
2022/05/01 05:51:49;;;;;;;13.52;9.65;;;5.60;99.90;;;;;;5067178;28;20048;-76
2022/05/01 05:54:15;;;;;;;12.15;8.98;;;5.60;99.90;;;;;;5049275;28;20052;-75
2022/05/01 05:56:41;;;;;;;13.25;9.60;;;5.70;99.90;;;;;;5049411;28;20055;-75
2022/05/01 05:59:07;;;;;;;11.85;9.18;;;5.80;99.90;;;;;;5066365;28;20049;-76
2022/05/01 06:01:33;;;;;;;12.07;8.73;;;6.10;99.90;;;;;;5048733;28;20045;-76
2022/05/01 06:03:59;;;;;;;11.15;9.13;;;6.60;99.90;;;;;;5048779;28;20052;-76
2022/05/01 06:06:24;;;;;;;14.20;9.38;;;6.20;99.90;;;;;;5049522;28;20041;-77
2022/05/01 06:08:50;;;;;;;11.50;9.40;;;6.40;99.90;;;;;;5048115;28;20057;-77
2022/05/01 06:11:16;;;;;;;11.13;8.93;;;6.50;99.90;;;;;;5032452;28;20057;-76
2022/05/01 06:13:41;;;;;;;12.95;9.13;;;6.70;99.90;;;;;;5048829;28;20398;-76
2022/05/01 06:16:07;;;;;;;10.43;8.52;;;6.80;99.90;;;;;;5049077;28;20057;-76
2022/05/01 06:18:33;;;;;;;10.52;8.23;;;7.00;99.90;;;;;;5030524;28;20057;-76
2022/05/01 06:20:59;;;;;;;11.15;8.60;;;8.10;99.90;;;;;;5048672;28;20048;-76
2022/05/01 06:23:24;;;;;;;11.52;8.95;;;7.30;99.90;;;;;;5049122;28;20059;-75
2022/05/01 06:25:50;;;;;;;13.90;10.13;;;7.40;99.90;;;;;;5032774;28;20053;-76
2022/05/01 06:28:17;;;;;;;13.48;9.75;;;7.60;99.90;;;;;;5039920;28;20044;-76
2022/05/01 06:30:47;;;;;;;10.93;9.40;;;8.50;99.90;;;;;;5050120;28;20053;-76
2022/05/01 06:33:15;;;;;;;11.05;8.43;;;8.00;99.90;;;;;;5065140;28;20400;-76
2022/05/01 06:35:42;;;;;;;10.98;9.77;;;8.10;99.90;;;;;;5048020;28;20044;-76
2022/05/01 06:38:08;;;;;;;9.85;8.82;;;8.60;99.90;;;;;;5031442;28;20056;-76
2022/05/01 06:40:38;;;;;;;9.23;7.90;;;8.50;99.90;;;;;;5048190;28;20051;-76
2022/05/01 06:43:05;;;;;;;9.65;7.80;;;8.70;99.90;;;;;;5047925;28;20049;-76
2022/05/01 06:45:31;;;;;;;9.95;8.70;;;8.80;99.90;;;;;;5031288;28;20102;-76
2022/05/01 06:47:57;;;;;;;11.93;9.02;;;9.00;99.90;;;;;;5063292;28;20037;-77
2022/05/01 06:50:23;;;;;;;12.70;8.57;;;9.20;99.90;;;;;;5048295;28;20063;-76
2022/05/01 06:52:48;;;;;;;8.73;7.82;;;9.30;99.90;;;;;;5048272;28;20048;-77
2022/05/01 06:55:18;;;;;;;7.57;6.78;;;9.40;99.90;;;;;;5047338;28;20410;-76
2022/05/01 06:57:44;;;;;;;7.30;6.25;;;9.50;99.90;;;;;;5030410;28;20083;-76
2022/05/01 07:00:11;;;;;;;5.55;3.97;;;9.70;99.90;;;;;;5063547;28;20077;-77
2022/05/01 07:02:43;;;;;;;8.57;5.38;;;9.80;99.90;;;;;;5008406;28;20100;-76
2022/05/01 07:05:09;;;;;;;8.27;6.65;;;10.00;99.90;;;;;;5063837;28;20053;-76
2022/05/01 07:07:34;;;;;;;8.27;6.68;;;10.10;99.90;;;;;;5048570;28;20520;-75
2022/05/01 07:10:00;;;;;;;8.30;6.60;;;10.20;99.90;;;;;;5030762;28;20418;-76
2022/05/01 07:12:26;;;;;;;7.25;6.28;;;10.30;99.90;;;;;;5022723;28;20040;-76
2022/05/01 07:14:53;;;;;;;8.55;6.65;;;10.50;99.90;;;;;;5031884;28;20079;-76
2022/05/01 07:17:18;;;;;;;7.35;6.43;;;10.60;99.90;;;;;;5046717;28;20446;-76
2022/05/01 07:19:44;;;;;;;7.43;5.45;;;10.80;99.90;;;;;;5047931;28;20132;-76
2022/05/01 07:22:13;;;;;;;8.85;6.43;;;10.80;99.90;;;;;;5031289;28;20045;-76
2022/05/01 07:24:39;;;;;;;7.57;6.40;;;10.90;99.90;;;;;;5080449;28;20105;-76
2022/05/01 07:27:05;;;;;;;6.63;5.45;;;11.00;99.90;;;;;;5031674;28;20048;-76
2022/05/01 07:29:31;;;;;;;7.20;5.03;;;11.10;99.90;;;;;;5030754;28;20088;-76
2022/05/01 07:31:57;;;;;;;6.18;4.95;;;11.20;99.90;;;;;;5047492;28;20044;-76
2022/05/01 07:34:22;;;;;;;6.15;5.50;;;11.40;99.90;;;;;;5080122;28;20371;-76
2022/05/01 07:36:48;;;;;;;8.82;5.15;;;11.70;99.90;;;;;;5047472;28;20051;-77
2022/05/01 07:39:14;;;;;;;6.18;4.80;;;11.70;99.90;;;;;;5030130;28;20060;-76
2022/05/01 07:41:41;;;;;;;6.72;5.03;;;11.70;99.90;;;;;;5030172;28;20169;-76
2022/05/01 07:44:08;;;;;;;7.07;5.20;;;11.60;99.90;;;;;;5045370;28;20118;-75
2022/05/01 07:46:34;;;;;;;7.38;5.60;;;11.50;99.90;;;;;;5047026;28;20057;-76
2022/05/01 07:49:00;;;;;;;7.78;5.20;;;11.50;99.90;;;;;;5029775;28;20048;-76
2022/05/01 07:51:26;;;;;;;7.38;5.80;;;11.60;99.90;;;;;;5046535;28;20094;-76
2022/05/01 07:53:53;;;;;;;8.85;5.93;;;11.60;99.90;;;;;;5028811;28;20041;-76
2022/05/01 07:56:19;;;;;;;6.55;5.43;;;11.70;99.90;;;;;;5046706;28;20049;-76
2022/05/01 07:58:45;;;;;;;7.72;5.53;;;11.70;99.90;;;;;;5045806;28;20049;-76
2022/05/01 08:01:11;;;;;;;8.25;5.45;;;11.80;99.90;;;;;;5046437;28;20045;-76
2022/05/01 08:06:22;;;;;;;7.18;5.13;;;11.70;99.90;;;;;;5047004;28;20075;-75
2022/05/01 08:08:49;;;;;;;7.00;5.53;;;11.60;99.90;;;;;;5045927;28;20092;-76
2022/05/01 08:11:14;;;;;;;6.53;5.18;;;11.50;99.90;;;;;;5039427;28;20052;-75
2022/05/01 08:13:40;;;;;;;7.10;5.32;;;11.50;99.90;;;;;;5045515;28;20391;-76
2022/05/01 08:16:06;;;;;;;5.70;5.07;;;11.40;99.90;;;;;;5046628;28;20048;-75
2022/05/01 08:21:17;;;;;;;5.85;4.85;;;11.40;99.90;;;;;;5080651;28;20057;-76
2022/05/01 08:23:43;;;;;;;9.38;5.35;;;11.40;99.90;;;;;;5063005;28;20850;-75
2022/05/01 08:26:10;;;;;;;7.07;5.03;;;11.50;99.90;;;;;;5045341;28;20040;-75
2022/05/01 08:28:42;;;;;;;6.35;5.00;;;11.60;99.90;;;;;;5044975;28;20143;-75
2022/05/01 08:31:08;;;;;;;5.55;4.93;;;11.60;99.90;;;;;;5046071;28;20099;-76
2022/05/01 08:33:35;;;;;;;5.55;4.85;;;11.60;99.90;;;;;;5029986;28;20049;-75
2022/05/01 08:36:03;;;;;;;6.22;4.57;;;11.80;99.90;;;;;;5024164;28;20041;-76
2022/05/01 08:38:30;;;;;;;5.45;4.57;;;11.80;99.90;;;;;;5079352;28;20107;-76
2022/05/01 08:40:55;;;;;;;7.28;5.20;;;11.90;99.90;;;;;;5026768;28;20498;-76
2022/05/01 08:43:24;;;;;;;7.68;5.22;;;12.00;99.90;;;;;;5077314;28;20052;-76
2022/05/01 08:45:53;;;;;;;6.65;5.07;;;12.20;99.90;;;;;;5046632;28;20053;-75
2022/05/01 08:48:36;;;;;;;6.18;4.90;;;12.30;99.90;;;;;;5045163;28;20112;-76
2022/05/01 08:51:04;;;;;;;6.30;4.82;;;12.50;99.90;;;;;;5080446;28;20409;-75
2022/05/01 08:53:31;;;;;;;5.38;4.30;;;12.60;99.90;;;;;;5044603;28;20416;-76
2022/05/01 08:55:58;;;;;;;5.22;4.53;;;12.80;99.90;;;;;;5046741;28;20498;-76
2022/05/01 08:58:28;;;;;;;6.40;4.88;;;12.80;99.90;;;;;;5053871;28;20041;-75
2022/05/01 09:00:54;;;;;;;5.85;4.78;;;12.80;99.90;;;;;;5080447;28;20049;-76
2022/05/01 09:03:20;;;;;;;7.13;4.82;;;12.90;99.90;;;;;;5045854;28;20063;-76
2022/05/01 09:05:46;;;;;;;6.75;4.72;;;12.90;99.90;;;;;;5046208;28;20444;-76
2022/05/01 09:08:12;;;;;;;5.88;4.40;;;13.00;99.90;;;;;;5028911;28;20048;-75
2022/05/01 09:10:40;;;;;;;4.38;3.85;;;13.00;99.90;;;;;;5063178;28;20057;-75
2022/05/01 09:13:07;;;;;;;7.22;4.53;;;13.00;99.90;;;;;;5024004;28;20402;-75
2022/05/01 09:15:36;;;;;;;6.07;4.00;;;13.00;99.90;;;;;;5039916;28;20057;-76
2022/05/01 09:18:04;;;;;;;5.78;4.35;;;13.20;99.90;;;;;;5033428;28;20057;-75
2022/05/01 09:20:31;;;;;;;5.10;4.55;;;13.60;99.90;;;;;;5049927;28;20056;-76
2022/05/01 09:22:58;;;;;;;5.05;3.95;;;14.00;99.90;;;;;;5043258;28;20124;-76
2022/05/01 09:25:27;;;;;;;7.40;4.85;;;14.50;99.90;;;;;;5048935;28;20393;-76
2022/05/01 09:27:57;;;;;;;5.00;4.50;;;14.90;99.90;;;;;;5049778;28;20517;-76
2022/05/01 09:30:31;;;;;;;6.60;4.38;;;15.30;99.90;;;;;;5081399;28;20142;-76
2022/05/01 09:32:58;;;;;;;5.93;4.38;;;15.80;99.90;;;;;;5048269;28;20053;-76
2022/05/01 09:35:32;;;;;;;6.40;4.28;;;16.10;99.90;;;;;;5046408;28;20111;-76
2022/05/01 09:38:21;;;;;;;5.38;4.20;;;16.40;99.90;;;;;;5024516;28;20740;-75
2022/05/01 09:40:57;;;;;;;5.95;4.40;;;16.70;99.90;;;;;;5050518;28;20060;-76
2022/05/01 09:43:42;;;;;;;5.70;3.88;;;16.90;99.90;;;;;;5049068;28;20114;-76
2022/05/01 09:46:19;;;;;;;5.00;4.47;;;17.10;99.90;;;;;;5038239;28;20059;-75
2022/05/01 09:49:12;;;;;;;5.18;4.10;;;17.20;99.90;;;;;;5048826;28;20559;-75
2022/05/01 09:51:55;;;;;;;5.72;4.75;;;17.30;99.50;;;;;;5066225;28;20137;-75
2022/05/01 09:54:26;;;;;;;6.57;4.32;;;17.30;99.90;;;;;;5048491;28;20053;-75
2022/05/01 09:56:59;;;;;;;4.90;4.35;;;17.20;99.90;;;;;;5065812;28;20072;-75
2022/05/01 09:59:27;;;;;;;4.63;3.53;;;17.20;99.60;;;;;;5042483;28;20097;-75
2022/05/01 10:02:03;;;;;;;4.50;3.78;;;17.40;99.90;;;;;;5049740;28;20127;-76
2022/05/01 10:04:35;;;;;;;4.72;3.63;;;17.60;98.50;;;;;;5065413;28;20052;-75
2022/05/01 10:07:02;;;;;;;5.18;3.58;;;17.90;98.90;;;;;;5042600;28;20060;-75
2022/05/01 10:09:30;;;;;;;3.83;2.70;;;18.30;98.40;;;;;;5064515;28;20049;-76
2022/05/01 10:11:57;;;;;;;4.25;2.90;;;18.70;97.70;;;;;;5064225;28;20608;-76
2022/05/01 10:14:23;;;;;;;3.35;2.80;;;18.90;95.80;;;;;;5030766;28;20516;-76
2022/05/01 10:16:50;;;;;;;4.10;2.38;;;19.00;95.70;;;;;;5049512;28;20128;-75
2022/05/01 10:19:19;;;;;;;4.38;2.65;;;19.10;94.70;;;;;;5082001;28;20126;-76
2022/05/01 10:21:50;;;;;;;3.25;2.65;;;18.60;92.50;;;;;;5082713;28;20156;-75
2022/05/01 10:24:17;;;;;;;4.03;2.42;;;18.10;93.10;;;;;;5025229;28;20053;-75
2022/05/01 10:27:04;;;;;;;4.22;2.20;;;17.70;93.80;;;;;;5031746;28;20044;-76
2022/05/01 10:33:35;;;;;;;4.50;2.55;;;17.40;93.30;;;;;;5048693;28;20056;-75
2022/05/01 10:36:31;;;;;;;3.55;2.72;;;17.50;92.80;;;;;;5059661;28;20057;-75
2022/05/01 10:39:09;;;;;;;3.17;2.53;;;17.40;93.20;;;;;;5063590;28;20091;-75
2022/05/01 10:41:40;;;;;;;3.35;2.50;;;17.30;92.80;;;;;;5080290;28;20048;-75
2022/05/01 10:44:06;;;;;;;3.83;2.60;;;17.10;93.70;;;;;;5048738;28;20065;-75
2022/05/01 10:46:32;;;;;;;3.45;2.83;;;17.10;94.60;;;;;;5031467;28;20064;-75
2022/05/01 10:49:05;;;;;;;3.60;2.50;;;17.10;94.30;;;;;;5080443;28;20095;-75
2022/05/01 10:51:30;;;;;;;4.28;2.50;;;17.40;94.70;;;;;;5046570;28;20131;-75
2022/05/01 10:54:19;;;;;;;3.75;2.35;;;17.70;94.20;;;;;;5029697;28;20131;-76
2022/05/01 10:56:49;;;;;;;3.92;2.40;;;17.80;93.00;;;;;;5046999;28;20106;-76
2022/05/01 10:59:30;;;;;;;4.10;2.88;;;17.90;93.30;;;;;;5045443;28;20113;-76
2022/05/01 11:02:03;;;;;;;5.75;2.88;;;18.20;92.00;;;;;;5064494;28;20419;-75
2022/05/01 11:04:32;;;;;;;4.22;2.60;;;18.40;92.70;;;;;;5047527;28;20132;-76
2022/05/01 11:07:03;;;;;;;3.83;2.60;;;18.70;92.30;;;;;;5082140;28;20056;-76
2022/05/01 11:09:34;;;;;;;4.18;2.80;;;18.90;91.90;;;;;;5080258;28;20179;-76
2022/05/01 11:12:00;;;;;;;5.22;2.50;;;18.70;91.30;;;;;;5047236;28;20538;-76
2022/05/01 11:14:49;;;;;;;3.40;2.50;;;18.50;91.30;;;;;;5030419;28;20056;-76
2022/05/01 11:17:27;;;;;;;4.53;2.60;;;18.40;90.80;;;;;;5080493;28;20502;-76
2022/05/01 11:19:53;;;;;;;3.15;2.58;;;18.40;91.20;;;;;;5048798;28;20065;-76
2022/05/01 11:22:26;;;;;;;3.25;2.60;;;18.60;91.60;;;;;;5022948;28;20080;-76
2022/05/01 11:24:52;;;;;;;3.95;2.60;;;18.60;90.50;;;;;;5039372;28;20071;-75
2022/05/01 11:27:21;;;;;;;3.42;2.45;;;18.60;91.30;;;;;;5080842;28;20057;-76
2022/05/01 11:30:22;;;;;;;4.55;2.60;;;18.80;91.00;;;;;;5064520;28;20045;-76
2022/05/01 11:32:52;;;;;;;4.32;2.60;;;18.80;89.90;;;;;;5080705;28;20126;-76
2022/05/01 11:35:21;;;;;;;5.35;2.80;;;18.90;90.90;;;;;;5048244;28;20080;-76
2022/05/01 11:37:48;;;;;;;3.50;2.58;;;19.10;90.80;;;;;;5029702;28;20463;-76
2022/05/01 11:40:23;;;;;;;4.55;2.80;;;19.00;90.10;;;;;;5063275;28;20079;-76
2022/05/01 11:42:50;;;;;;;4.35;2.60;;;19.30;90.30;;;;;;5030256;28;20055;-76
2022/05/01 11:45:18;;;;;;;3.20;2.40;;;19.50;90.10;;;;;;5080612;28;20068;-76
2022/05/01 11:47:48;;;;;;;3.88;2.30;;;19.60;88.80;;;;;;5047656;28;20449;-76
2022/05/01 11:50:22;;;;;;;3.35;2.45;;;19.70;88.30;;;;;;5024302;28;20049;-76
2022/05/01 11:52:49;;;;;;;3.75;2.58;;;19.50;86.30;;;;;;5047240;28;20403;-76
2022/05/01 11:55:18;;;;;;;4.00;2.60;;;19.20;86.00;;;;;;5044894;28;20372;-76
2022/05/01 12:03:29;;;;;;;3.67;2.50;;;19.50;86.60;;;;;;5045314;28;20053;-76
2022/05/01 12:05:55;;;;;;;4.07;2.70;;;19.60;85.90;;;;;;5045242;28;20045;-76
2022/05/01 12:08:22;;;;;;;3.78;2.60;;;19.60;85.20;;;;;;5046083;28;20055;-76
2022/05/01 12:10:48;;;;;;;3.85;2.40;;;19.40;84.70;;;;;;5045379;28;20052;-76
2022/05/01 12:13:22;;;;;;;3.20;2.63;;;19.10;85.60;;;;;;5061634;28;20055;-76
2022/05/01 12:15:49;;;;;;;3.92;2.63;;;19.00;84.90;;;;;;5046254;28;21061;-75
2022/05/01 12:18:15;;;;;;;3.88;2.67;;;19.00;86.30;;;;;;5045250;28;20063;-77
2022/05/01 12:20:41;;;;;;;5.32;2.92;;;19.00;85.50;;;;;;5080284;28;20046;-77
2022/05/01 12:23:21;;;;;;;3.63;2.45;;;19.00;85.60;;;;;;5078811;28;20573;-76
2022/05/01 12:25:50;;;;;;;4.57;2.53;;;18.90;84.70;;;;;;5030348;28;20486;-76
2022/05/01 12:28:18;;;;;;;3.83;2.80;;;18.70;86.20;;;;;;5039075;28;20098;-76
2022/05/01 12:30:49;;;;;;;3.85;2.58;;;18.60;86.70;;;;;;5063766;28;20049;-76
2022/05/01 12:33:25;;;;;;;5.00;2.67;;;18.60;86.70;;;;;;5029884;28;20111;-77
2022/05/01 12:35:59;;;;;;;3.47;2.50;;;18.50;87.10;;;;;;5030512;28;20478;-76
2022/05/01 12:38:29;;;;;;;4.60;3.03;;;18.50;86.90;;;;;;5079274;28;20041;-76
2022/05/01 12:43:55;;;;;;;3.65;2.60;;;18.50;87.20;;;;;;5079745;28;20506;-76
2022/05/01 12:46:29;;;;;;;4.40;2.65;;;18.30;87.90;;;;;;5049125;28;20053;-76
2022/05/01 12:48:56;;;;;;;4.13;3.08;;;18.30;88.50;;;;;;5043749;28;20057;-76
2022/05/01 12:51:24;;;;;;;3.95;2.90;;;18.30;88.70;;;;;;5031836;28;20125;-76
2022/05/01 12:54:17;;;;;;;3.47;2.67;;;18.20;88.10;;;;;;5051592;28;20083;-76
2022/05/01 12:56:46;;;;;;;4.07;2.58;;;18.30;87.30;;;;;;5049166;28;20128;-76
2022/05/01 12:59:27;;;;;;;3.78;2.95;;;18.30;88.70;;;;;;5083835;28;20541;-76
2022/05/01 13:01:55;;;;;;;18.48;3.53;;;18.40;85.00;;;;;;5050304;28;20056;-76
2022/05/01 13:04:31;;;;;;;4.60;3.10;;;18.40;87.30;;;;;;5042303;28;20040;-76
2022/05/01 13:06:57;;;;;;;4.70;2.92;;;18.50;87.70;;;;;;5049976;28;20051;-75
2022/05/01 13:09:23;;;;;;;4.85;3.10;;;18.80;88.30;;;;;;5025524;28;20087;-76
2022/05/01 13:12:26;;;;;;;4.22;2.88;;;18.90;87.50;;;;;;5050482;28;20470;-76
2022/05/01 13:14:57;;;;;;;4.22;3.10;;;18.90;85.50;;;;;;5079563;28;20052;-76
2022/05/01 13:17:25;;;;;;;6.03;2.95;;;19.10;86.30;;;;;;5064311;28;20068;-76
2022/05/01 13:19:51;;;;;;;6.85;2.55;;;19.20;86.40;;;;;;5051344;28;20045;-76
2022/05/01 13:22:17;;;;;;;3.58;2.70;;;19.50;86.00;;;;;;5051121;28;20567;-76
2022/05/01 13:24:44;;;;;;;4.70;2.70;;;19.80;85.00;;;;;;5048658;28;20356;-76
2022/05/01 13:27:12;;;;;;;4.30;2.75;;;20.20;84.20;;;;;;5050819;28;20055;-76